sensor_id;sensor_type;location;lat;lon;timestamp;pressure;altitude;pressure_sealevel;temperature;humidity
56270;BME280;42176;43.240;27.880;2023-04-25T00:02:18;99616.97;;;10.75;100.00
56270;BME280;42176;43.240;27.880;2023-04-25T00:04:44;99620.38;;;10.80;100.00
56270;BME280;42176;43.240;27.880;2023-04-25T00:07:10;99605.59;;;10.73;100.00
56270;BME280;42176;43.240;27.880;2023-04-25T00:09:35;99608.41;;;10.67;100.00
56270;BME280;42176;43.240;27.880;2023-04-25T00:12:01;99607.56;;;10.66;100.00
56270;BME280;42176;43.240;27.880;2023-04-25T00:14:26;99612.38;;;10.82;100.00
56270;BME280;42176;43.240;27.880;2023-04-25T00:16:53;99605.19;;;10.86;100.00
56270;BME280;42176;43.240;27.880;2023-04-25T00:19:19;99601.28;;;10.69;100.00
56270;BME280;42176;43.240;27.880;2023-04-25T00:21:44;99604.53;;;10.77;100.00
56270;BME280;42176;43.240;27.880;2023-04-25T00:24:12;99608.22;;;10.73;100.00
56270;BME280;42176;43.240;27.880;2023-04-25T00:26:37;99599.97;;;10.82;100.00
56270;BME280;42176;43.240;27.880;2023-04-25T00:29:02;99587.69;;;10.80;100.00
56270;BME280;42176;43.240;27.880;2023-04-25T00:31:28;99586.19;;;10.71;100.00
56270;BME280;42176;43.240;27.880;2023-04-25T00:33:54;99562.19;;;10.47;100.00
56270;BME280;42176;43.240;27.880;2023-04-25T00:36:20;99580.56;;;10.54;100.00
56270;BME280;42176;43.240;27.880;2023-04-25T00:38:45;99569.88;;;10.57;100.00
56270;BME280;42176;43.240;27.880;2023-04-25T00:41:11;99566.78;;;10.42;100.00
56270;BME280;42176;43.240;27.880;2023-04-25T00:43:37;99575.16;;;10.57;100.00
56270;BME280;42176;43.240;27.880;2023-04-25T00:46:03;99587.53;;;10.56;100.00
56270;BME280;42176;43.240;27.880;2023-04-25T00:48:28;99581.97;;;10.65;100.00
56270;BME280;42176;43.240;27.880;2023-04-25T00:50:56;99585.75;;;10.57;100.00
56270;BME280;42176;43.240;27.880;2023-04-25T00:53:23;99585.66;;;10.60;100.00
56270;BME280;42176;43.240;27.880;2023-04-25T00:55:50;99570.78;;;10.56;100.00
56270;BME280;42176;43.240;27.880;2023-04-25T00:58:19;99575.03;;;10.60;100.00
56270;BME280;42176;43.240;27.880;2023-04-25T01:00:46;99567.66;;;10.71;100.00
56270;BME280;42176;43.240;27.880;2023-04-25T01:03:15;99564.44;;;10.60;100.00
56270;BME280;42176;43.240;27.880;2023-04-25T01:05:41;99566.47;;;10.51;100.00
56270;BME280;42176;43.240;27.880;2023-04-25T01:08:07;99545.47;;;10.45;100.00
56270;BME280;42176;43.240;27.880;2023-04-25T01:10:33;99558.69;;;10.47;100.00
56270;BME280;42176;43.240;27.880;2023-04-25T01:12:58;99566.97;;;10.64;100.00
56270;BME280;42176;43.240;27.880;2023-04-25T01:15:24;99557.28;;;10.63;100.00
56270;BME280;42176;43.240;27.880;2023-04-25T01:17:50;99543.31;;;10.85;100.00
56270;BME280;42176;43.240;27.880;2023-04-25T01:20:15;99539.84;;;10.83;100.00
56270;BME280;42176;43.240;27.880;2023-04-25T01:23:04;99538.66;;;10.65;100.00
56270;BME280;42176;43.240;27.880;2023-04-25T01:25:30;99534.78;;;10.75;100.00
56270;BME280;42176;43.240;27.880;2023-04-25T01:27:57;99535.88;;;10.70;100.00
56270;BME280;42176;43.240;27.880;2023-04-25T01:30:22;99530.94;;;10.59;100.00
56270;BME280;42176;43.240;27.880;2023-04-25T01:32:49;99531.78;;;10.59;100.00
56270;BME280;42176;43.240;27.880;2023-04-25T01:35:14;99526.56;;;10.58;100.00
56270;BME280;42176;43.240;27.880;2023-04-25T01:37:41;99537.94;;;10.60;100.00
56270;BME280;42176;43.240;27.880;2023-04-25T01:40:09;99530.53;;;10.43;100.00
56270;BME280;42176;43.240;27.880;2023-04-25T01:42:36;99539.41;;;10.42;100.00
56270;BME280;42176;43.240;27.880;2023-04-25T01:45:02;99543.72;;;10.44;100.00
56270;BME280;42176;43.240;27.880;2023-04-25T01:47:28;99542.38;;;10.59;100.00
56270;BME280;42176;43.240;27.880;2023-04-25T01:49:54;99527.25;;;10.63;100.00
56270;BME280;42176;43.240;27.880;2023-04-25T01:52:20;99527.09;;;10.68;100.00
56270;BME280;42176;43.240;27.880;2023-04-25T01:54:45;99524.84;;;10.55;100.00
56270;BME280;42176;43.240;27.880;2023-04-25T01:57:11;99516.94;;;10.54;100.00
56270;BME280;42176;43.240;27.880;2023-04-25T01:59:37;99506.53;;;10.47;100.00
56270;BME280;42176;43.240;27.880;2023-04-25T02:02:03;99506.63;;;10.44;100.00
56270;BME280;42176;43.240;27.880;2023-04-25T02:04:32;99510.00;;;10.49;100.00
56270;BME280;42176;43.240;27.880;2023-04-25T02:06:58;99503.72;;;10.52;100.00
56270;BME280;42176;43.240;27.880;2023-04-25T02:09:24;99499.50;;;10.46;100.00
56270;BME280;42176;43.240;27.880;2023-04-25T02:11:50;99497.75;;;10.45;100.00
56270;BME280;42176;43.240;27.880;2023-04-25T02:14:15;99495.84;;;10.50;100.00
56270;BME280;42176;43.240;27.880;2023-04-25T02:16:41;99501.06;;;10.54;100.00
56270;BME280;42176;43.240;27.880;2023-04-25T02:19:09;99490.72;;;10.44;100.00
56270;BME280;42176;43.240;27.880;2023-04-25T02:21:35;99488.91;;;10.46;100.00
56270;BME280;42176;43.240;27.880;2023-04-25T02:24:01;99506.84;;;10.38;100.00
56270;BME280;42176;43.240;27.880;2023-04-25T02:26:26;99500.41;;;10.45;100.00
56270;BME280;42176;43.240;27.880;2023-04-25T02:28:52;99488.72;;;10.53;100.00
56270;BME280;42176;43.240;27.880;2023-04-25T02:31:17;99488.03;;;10.46;100.00
56270;BME280;42176;43.240;27.880;2023-04-25T02:33:43;99483.69;;;10.43;100.00
56270;BME280;42176;43.240;27.880;2023-04-25T02:36:09;99478.22;;;10.49;100.00
56270;BME280;42176;43.240;27.880;2023-04-25T02:38:34;99479.84;;;10.54;100.00
56270;BME280;42176;43.240;27.880;2023-04-25T02:41:00;99476.28;;;10.55;100.00
56270;BME280;42176;43.240;27.880;2023-04-25T02:43:25;99471.25;;;10.45;100.00
56270;BME280;42176;43.240;27.880;2023-04-25T02:45:51;99467.25;;;10.32;100.00
56270;BME280;42176;43.240;27.880;2023-04-25T02:48:16;99472.44;;;10.35;100.00
56270;BME280;42176;43.240;27.880;2023-04-25T02:50:42;99484.06;;;10.31;100.00
56270;BME280;42176;43.240;27.880;2023-04-25T02:53:07;99486.53;;;10.37;100.00
56270;BME280;42176;43.240;27.880;2023-04-25T02:55:33;99475.03;;;10.38;100.00
56270;BME280;42176;43.240;27.880;2023-04-25T02:57:58;99474.81;;;10.44;100.00
56270;BME280;42176;43.240;27.880;2023-04-25T03:00:24;99468.63;;;10.45;100.00
56270;BME280;42176;43.240;27.880;2023-04-25T03:02:49;99475.94;;;10.37;100.00
56270;BME280;42176;43.240;27.880;2023-04-25T03:05:14;99468.88;;;10.36;100.00
56270;BME280;42176;43.240;27.880;2023-04-25T03:07:40;99472.19;;;10.14;100.00
56270;BME280;42176;43.240;27.880;2023-04-25T03:10:06;99465.06;;;10.16;100.00
56270;BME280;42176;43.240;27.880;2023-04-25T03:12:32;99473.53;;;10.28;100.00
56270;BME280;42176;43.240;27.880;2023-04-25T03:14:58;99473.53;;;10.28;100.00
56270;BME280;42176;43.240;27.880;2023-04-25T03:17:23;99472.59;;;10.30;100.00
56270;BME280;42176;43.240;27.880;2023-04-25T03:19:49;99458.34;;;10.34;100.00
56270;BME280;42176;43.240;27.880;2023-04-25T03:22:14;99461.78;;;10.36;100.00
56270;BME280;42176;43.240;27.880;2023-04-25T03:24:40;99467.31;;;10.30;100.00
56270;BME280;42176;43.240;27.880;2023-04-25T03:27:05;99468.25;;;10.28;100.00
56270;BME280;42176;43.240;27.880;2023-04-25T03:29:31;99457.47;;;10.34;100.00
56270;BME280;42176;43.240;27.880;2023-04-25T03:31:56;99462.63;;;10.40;100.00
56270;BME280;42176;43.240;27.880;2023-04-25T03:34:21;99468.94;;;10.34;100.00
56270;BME280;42176;43.240;27.880;2023-04-25T03:37:06;99469.81;;;10.35;100.00
56270;BME280;42176;43.240;27.880;2023-04-25T03:39:31;99459.06;;;10.41;100.00
56270;BME280;42176;43.240;27.880;2023-04-25T03:41:56;99451.63;;;10.53;100.00
56270;BME280;42176;43.240;27.880;2023-04-25T03:44:22;99444.91;;;10.42;100.00
56270;BME280;42176;43.240;27.880;2023-04-25T03:46:49;99444.56;;;10.51;100.00
56270;BME280;42176;43.240;27.880;2023-04-25T03:49:14;99440.34;;;10.46;100.00
56270;BME280;42176;43.240;27.880;2023-04-25T03:51:40;99436.78;;;10.47;100.00
56270;BME280;42176;43.240;27.880;2023-04-25T03:54:05;99445.66;;;10.46;100.00
56270;BME280;42176;43.240;27.880;2023-04-25T03:56:31;99440.34;;;10.46;100.00
56270;BME280;42176;43.240;27.880;2023-04-25T03:58:56;99436.16;;;10.39;100.00
56270;BME280;42176;43.240;27.880;2023-04-25T04:01:21;99433.34;;;10.43;100.00
56270;BME280;42176;43.240;27.880;2023-04-25T04:03:47;99428.06;;;10.43;100.00
56270;BME280;42176;43.240;27.880;2023-04-25T04:06:13;99423.19;;;10.58;100.00
56270;BME280;42176;43.240;27.880;2023-04-25T04:08:38;99415.16;;;10.59;100.00
56270;BME280;42176;43.240;27.880;2023-04-25T04:11:04;99413.56;;;11.31;100.00
56270;BME280;42176;43.240;27.880;2023-04-25T04:13:30;99404.56;;;11.83;100.00
56270;BME280;42176;43.240;27.880;2023-04-25T04:15:55;99383.81;;;12.59;100.00
56270;BME280;42176;43.240;27.880;2023-04-25T04:18:21;99366.97;;;13.00;100.00
56270;BME280;42176;43.240;27.880;2023-04-25T04:20:47;99368.78;;;13.59;100.00
56270;BME280;42176;43.240;27.880;2023-04-25T04:23:13;99360.84;;;14.14;100.00
56270;BME280;42176;43.240;27.880;2023-04-25T04:25:38;99359.13;;;14.13;100.00
56270;BME280;42176;43.240;27.880;2023-04-25T04:28:05;99364.13;;;14.20;100.00
56270;BME280;42176;43.240;27.880;2023-04-25T04:30:31;99360.78;;;14.34;100.00
56270;BME280;42176;43.240;27.880;2023-04-25T04:32:58;99363.69;;;14.64;100.00
56270;BME280;42176;43.240;27.880;2023-04-25T04:35:26;99342.06;;;14.70;100.00
56270;BME280;42176;43.240;27.880;2023-04-25T04:37:51;99363.31;;;15.57;100.00
56270;BME280;42176;43.240;27.880;2023-04-25T04:40:17;99352.13;;;16.14;93.84
56270;BME280;42176;43.240;27.880;2023-04-25T04:42:43;99353.69;;;16.79;88.31
56270;BME280;42176;43.240;27.880;2023-04-25T04:45:11;99359.47;;;17.16;86.30
56270;BME280;42176;43.240;27.880;2023-04-25T04:47:38;99351.72;;;17.12;85.09
56270;BME280;42176;43.240;27.880;2023-04-25T04:50:09;99352.63;;;17.27;84.60
56270;BME280;42176;43.240;27.880;2023-04-25T04:52:36;99348.00;;;17.58;81.72
56270;BME280;42176;43.240;27.880;2023-04-25T04:55:03;99356.66;;;16.44;86.36
56270;BME280;42176;43.240;27.880;2023-04-25T04:57:29;99356.44;;;15.68;93.00
56270;BME280;42176;43.240;27.880;2023-04-25T04:59:55;99351.44;;;14.95;98.99
56270;BME280;42176;43.240;27.880;2023-04-25T05:02:20;99336.59;;;16.21;93.13
56270;BME280;42176;43.240;27.880;2023-04-25T05:04:46;99341.63;;;17.88;80.25
56270;BME280;42176;43.240;27.880;2023-04-25T05:07:12;99348.97;;;17.28;80.49
56270;BME280;42176;43.240;27.880;2023-04-25T05:09:37;99344.84;;;17.93;78.60
56270;BME280;42176;43.240;27.880;2023-04-25T05:12:03;99353.16;;;18.58;73.38
56270;BME280;42176;43.240;27.880;2023-04-25T05:14:28;99345.53;;;17.96;75.75
56270;BME280;42176;43.240;27.880;2023-04-25T05:16:54;99355.09;;;18.28;74.25
56270;BME280;42176;43.240;27.880;2023-04-25T05:19:19;99348.69;;;18.84;68.80
56270;BME280;42176;43.240;27.880;2023-04-25T05:21:45;99349.38;;;18.60;70.30
56270;BME280;42176;43.240;27.880;2023-04-25T05:24:10;99348.75;;;18.69;67.15
56270;BME280;42176;43.240;27.880;2023-04-25T05:26:36;99342.31;;;18.85;67.45
56270;BME280;42176;43.240;27.880;2023-04-25T05:29:02;99348.38;;;18.89;66.61
56270;BME280;42176;43.240;27.880;2023-04-25T05:31:29;99337.44;;;19.17;64.14
56270;BME280;42176;43.240;27.880;2023-04-25T05:33:54;99308.09;;;20.26;58.69
56270;BME280;42176;43.240;27.880;2023-04-25T05:36:20;99337.09;;;21.85;53.73
56270;BME280;42176;43.240;27.880;2023-04-25T05:38:45;99340.81;;;23.12;48.79
56270;BME280;42176;43.240;27.880;2023-04-25T05:41:11;99330.97;;;21.37;51.42
56270;BME280;42176;43.240;27.880;2023-04-25T05:43:36;99332.72;;;22.49;50.45
56270;BME280;42176;43.240;27.880;2023-04-25T05:46:02;99333.78;;;24.03;45.51
56270;BME280;42176;43.240;27.880;2023-04-25T05:48:27;99329.50;;;21.79;47.98
56270;BME280;42176;43.240;27.880;2023-04-25T05:50:53;99332.50;;;18.98;57.26
56270;BME280;42176;43.240;27.880;2023-04-25T05:53:19;99324.25;;;18.48;60.36
56270;BME280;42176;43.240;27.880;2023-04-25T05:55:46;99319.72;;;19.15;59.67
56270;BME280;42176;43.240;27.880;2023-04-25T05:58:11;99326.16;;;19.62;57.37
56270;BME280;42176;43.240;27.880;2023-04-25T06:00:37;99325.59;;;19.46;57.60
56270;BME280;42176;43.240;27.880;2023-04-25T06:03:03;99320.03;;;19.23;56.77
56270;BME280;42176;43.240;27.880;2023-04-25T06:05:30;99318.03;;;18.48;60.62
56270;BME280;42176;43.240;27.880;2023-04-25T06:07:56;99324.69;;;18.55;61.56
56270;BME280;42176;43.240;27.880;2023-04-25T06:10:21;99328.41;;;18.39;61.18
56270;BME280;42176;43.240;27.880;2023-04-25T06:12:47;99320.16;;;18.42;60.62
56270;BME280;42176;43.240;27.880;2023-04-25T06:15:13;99310.47;;;18.27;60.43
56270;BME280;42176;43.240;27.880;2023-04-25T06:17:38;99309.66;;;17.85;61.21
56270;BME280;42176;43.240;27.880;2023-04-25T06:20:05;99310.50;;;17.43;64.52
56270;BME280;42176;43.240;27.880;2023-04-25T06:22:31;99312.44;;;17.27;66.25
56270;BME280;42176;43.240;27.880;2023-04-25T06:24:56;99301.16;;;17.22;66.58
56270;BME280;42176;43.240;27.880;2023-04-25T06:27:24;99290.34;;;17.65;63.48
56270;BME280;42176;43.240;27.880;2023-04-25T06:29:50;99301.09;;;17.50;64.63
56270;BME280;42176;43.240;27.880;2023-04-25T06:32:15;99303.22;;;17.45;65.42
56270;BME280;42176;43.240;27.880;2023-04-25T06:34:41;99300.97;;;17.25;67.19
56270;BME280;42176;43.240;27.880;2023-04-25T06:37:06;99296.16;;;17.15;66.99
56270;BME280;42176;43.240;27.880;2023-04-25T06:39:31;99301.75;;;17.12;63.86
56270;BME280;42176;43.240;27.880;2023-04-25T06:41:57;99302.28;;;17.03;64.59
56270;BME280;42176;43.240;27.880;2023-04-25T06:44:22;99293.69;;;16.98;64.79
56270;BME280;42176;43.240;27.880;2023-04-25T06:46:49;99290.19;;;17.54;63.41
56270;BME280;42176;43.240;27.880;2023-04-25T06:49:14;99297.84;;;17.45;60.42
56270;BME280;42176;43.240;27.880;2023-04-25T06:51:40;99293.69;;;17.69;59.09
56270;BME280;42176;43.240;27.880;2023-04-25T06:54:06;99288.19;;;17.85;57.06
56270;BME280;42176;43.240;27.880;2023-04-25T06:56:31;99288.03;;;18.28;55.85
56270;BME280;42176;43.240;27.880;2023-04-25T06:58:57;99292.00;;;20.13;50.39
56270;BME280;42176;43.240;27.880;2023-04-25T07:01:22;99286.34;;;21.79;45.64
56270;BME280;42176;43.240;27.880;2023-04-25T07:03:48;99282.47;;;23.10;41.35
56270;BME280;42176;43.240;27.880;2023-04-25T07:06:13;99275.66;;;24.07;39.47
56270;BME280;42176;43.240;27.880;2023-04-25T07:08:39;99275.66;;;24.37;38.63
56270;BME280;42176;43.240;27.880;2023-04-25T07:11:04;99278.72;;;24.91;37.89
56270;BME280;42176;43.240;27.880;2023-04-25T07:13:30;99281.84;;;26.08;35.74
56270;BME280;42176;43.240;27.880;2023-04-25T07:15:55;99276.34;;;25.99;35.78
56270;BME280;42176;43.240;27.880;2023-04-25T07:18:22;99269.47;;;27.29;34.72
56270;BME280;42176;43.240;27.880;2023-04-25T07:20:47;99268.53;;;26.59;34.23
56270;BME280;42176;43.240;27.880;2023-04-25T07:23:12;99272.88;;;27.31;32.28
56270;BME280;42176;43.240;27.880;2023-04-25T07:25:38;99275.19;;;28.94;30.43
56270;BME280;42176;43.240;27.880;2023-04-25T07:28:03;99264.13;;;30.07;29.81
56270;BME280;42176;43.240;27.880;2023-04-25T07:30:29;99264.50;;;30.04;28.05
56270;BME280;42176;43.240;27.880;2023-04-25T07:32:55;99256.00;;;27.54;31.98
56270;BME280;42176;43.240;27.880;2023-04-25T07:35:20;99262.84;;;26.97;32.70
56270;BME280;42176;43.240;27.880;2023-04-25T07:37:46;99255.81;;;26.41;33.13
56270;BME280;42176;43.240;27.880;2023-04-25T07:40:11;99253.19;;;26.76;33.76
56270;BME280;42176;43.240;27.880;2023-04-25T07:42:37;99244.22;;;28.62;30.70
56270;BME280;42176;43.240;27.880;2023-04-25T07:45:03;99250.50;;;28.13;29.82
56270;BME280;42176;43.240;27.880;2023-04-25T07:47:28;99251.63;;;26.92;32.27
56270;BME280;42176;43.240;27.880;2023-04-25T07:49:54;99249.22;;;25.72;34.74
56270;BME280;42176;43.240;27.880;2023-04-25T07:52:19;99242.44;;;23.95;36.96
56270;BME280;42176;43.240;27.880;2023-04-25T07:54:45;99247.53;;;23.18;39.21
56270;BME280;42176;43.240;27.880;2023-04-25T07:57:12;99240.75;;;22.29;41.67
56270;BME280;42176;43.240;27.880;2023-04-25T07:59:39;99238.75;;;22.10;42.28
56270;BME280;42176;43.240;27.880;2023-04-25T08:02:05;99235.94;;;21.01;44.83
56270;BME280;42176;43.240;27.880;2023-04-25T08:04:31;99230.56;;;20.31;46.56
56270;BME280;42176;43.240;27.880;2023-04-25T08:06:56;99235.88;;;20.08;47.96
56270;BME280;42176;43.240;27.880;2023-04-25T08:09:22;99245.44;;;20.13;48.05
56270;BME280;42176;43.240;27.880;2023-04-25T08:11:47;99258.13;;;19.86;48.01
56270;BME280;42176;43.240;27.880;2023-04-25T08:14:13;99250.09;;;19.49;49.03
56270;BME280;42176;43.240;27.880;2023-04-25T08:16:39;99252.72;;;19.25;48.24
56270;BME280;42176;43.240;27.880;2023-04-25T08:19:04;99256.47;;;18.19;51.36
56270;BME280;42176;43.240;27.880;2023-04-25T08:21:31;99262.41;;;17.69;53.19
56270;BME280;42176;43.240;27.880;2023-04-25T08:23:57;99266.84;;;17.56;54.15
56270;BME280;42176;43.240;27.880;2023-04-25T08:26:23;99283.34;;;17.20;55.94
56270;BME280;42176;43.240;27.880;2023-04-25T08:28:50;99272.34;;;16.37;59.23
56270;BME280;42176;43.240;27.880;2023-04-25T08:31:15;99269.97;;;16.02;57.85
56270;BME280;42176;43.240;27.880;2023-04-25T08:33:42;99272.13;;;15.79;62.26
56270;BME280;42176;43.240;27.880;2023-04-25T08:36:07;99270.78;;;15.88;65.26
56270;BME280;42176;43.240;27.880;2023-04-25T08:38:33;99284.19;;;15.70;67.95
56270;BME280;42176;43.240;27.880;2023-04-25T08:40:59;99284.22;;;15.54;70.79
56270;BME280;42176;43.240;27.880;2023-04-25T08:43:26;99272.63;;;15.05;74.89
56270;BME280;42176;43.240;27.880;2023-04-25T08:45:53;99278.56;;;15.11;74.39
56270;BME280;42176;43.240;27.880;2023-04-25T08:48:19;99274.19;;;15.42;71.95
56270;BME280;42176;43.240;27.880;2023-04-25T08:50:51;99279.75;;;15.38;70.22
56270;BME280;42176;43.240;27.880;2023-04-25T08:53:27;99289.56;;;15.54;69.75
56270;BME280;42176;43.240;27.880;2023-04-25T08:55:57;99274.03;;;15.45;70.47
56270;BME280;42176;43.240;27.880;2023-04-25T08:58:23;99273.69;;;15.83;69.72
56270;BME280;42176;43.240;27.880;2023-04-25T09:00:49;99276.44;;;15.97;68.05
56270;BME280;42176;43.240;27.880;2023-04-25T09:03:16;99276.09;;;16.04;65.89
56270;BME280;42176;43.240;27.880;2023-04-25T09:05:42;99270.88;;;15.86;66.45
56270;BME280;42176;43.240;27.880;2023-04-25T09:08:08;99271.66;;;15.88;67.34
56270;BME280;42176;43.240;27.880;2023-04-25T09:10:35;99267.81;;;15.92;66.07
56270;BME280;42176;43.240;27.880;2023-04-25T09:13:10;99273.66;;;15.99;64.84
56270;BME280;42176;43.240;27.880;2023-04-25T09:15:58;99265.72;;;15.81;66.67
56270;BME280;42176;43.240;27.880;2023-04-25T09:18:28;99258.69;;;15.96;66.49
56270;BME280;42176;43.240;27.880;2023-04-25T09:21:15;99257.06;;;16.24;64.90
56270;BME280;42176;43.240;27.880;2023-04-25T09:23:45;99250.38;;;16.17;65.14
56270;BME280;42176;43.240;27.880;2023-04-25T09:26:19;99250.78;;;15.95;66.85
56270;BME280;42176;43.240;27.880;2023-04-25T09:28:45;99242.81;;;15.93;66.97
56270;BME280;42176;43.240;27.880;2023-04-25T09:31:21;99252.78;;;16.06;67.24
56270;BME280;42176;43.240;27.880;2023-04-25T09:33:47;99249.97;;;16.23;66.94
56270;BME280;42176;43.240;27.880;2023-04-25T09:36:12;99246.25;;;16.11;67.02
56270;BME280;42176;43.240;27.880;2023-04-25T09:38:43;99249.44;;;16.33;66.80
56270;BME280;42176;43.240;27.880;2023-04-25T09:41:09;99236.84;;;16.35;67.10
56270;BME280;42176;43.240;27.880;2023-04-25T09:43:36;99243.47;;;16.58;66.63
56270;BME280;42176;43.240;27.880;2023-04-25T09:46:02;99235.72;;;16.82;65.62
56270;BME280;42176;43.240;27.880;2023-04-25T09:48:28;99222.34;;;16.68;65.75
56270;BME280;42176;43.240;27.880;2023-04-25T09:51:06;99238.44;;;16.97;66.00
56270;BME280;42176;43.240;27.880;2023-04-25T09:53:37;99241.75;;;17.15;64.84
56270;BME280;42176;43.240;27.880;2023-04-25T09:56:07;99230.94;;;17.16;65.15
56270;BME280;42176;43.240;27.880;2023-04-25T09:58:34;99237.00;;;17.47;64.04
56270;BME280;42176;43.240;27.880;2023-04-25T10:01:02;99228.16;;;17.60;63.38
56270;BME280;42176;43.240;27.880;2023-04-25T10:03:32;99228.31;;;17.71;63.10
56270;BME280;42176;43.240;27.880;2023-04-25T10:06:04;99222.44;;;18.06;60.98
56270;BME280;42176;43.240;27.880;2023-04-25T10:08:37;99222.78;;;18.15;61.15
56270;BME280;42176;43.240;27.880;2023-04-25T10:11:05;99221.22;;;18.51;60.18
56270;BME280;42176;43.240;27.880;2023-04-25T10:13:32;99212.38;;;19.00;58.89
56270;BME280;42176;43.240;27.880;2023-04-25T10:15:58;99203.78;;;19.45;56.96
56270;BME280;42176;43.240;27.880;2023-04-25T10:18:29;99198.28;;;19.96;55.08
56270;BME280;42176;43.240;27.880;2023-04-25T10:20:56;99196.34;;;19.98;53.01
56270;BME280;42176;43.240;27.880;2023-04-25T10:23:23;99199.25;;;19.70;54.94
56270;BME280;42176;43.240;27.880;2023-04-25T10:25:51;99184.56;;;19.87;55.64
56270;BME280;42176;43.240;27.880;2023-04-25T10:28:17;99191.78;;;19.87;53.75
56270;BME280;42176;43.240;27.880;2023-04-25T10:31:02;99177.25;;;19.89;53.70
56270;BME280;42176;43.240;27.880;2023-04-25T10:33:39;99180.72;;;20.03;53.39
56270;BME280;42176;43.240;27.880;2023-04-25T10:36:14;99164.56;;;20.03;53.38
56270;BME280;42176;43.240;27.880;2023-04-25T10:38:42;99172.88;;;20.00;53.43
56270;BME280;42176;43.240;27.880;2023-04-25T10:41:09;99159.72;;;20.08;53.58
56270;BME280;42176;43.240;27.880;2023-04-25T10:43:45;99163.38;;;20.07;52.16
56270;BME280;42176;43.240;27.880;2023-04-25T10:46:22;99165.31;;;20.05;51.74
56270;BME280;42176;43.240;27.880;2023-04-25T10:48:55;99170.94;;;20.02;51.72
56270;BME280;42176;43.240;27.880;2023-04-25T10:51:26;99166.97;;;19.95;52.42
56270;BME280;42176;43.240;27.880;2023-04-25T10:56:24;99164.38;;;20.17;52.55
56270;BME280;42176;43.240;27.880;2023-04-25T10:58:50;99164.19;;;19.96;53.72
56270;BME280;42176;43.240;27.880;2023-04-25T11:01:21;99151.81;;;19.93;52.89
56270;BME280;42176;43.240;27.880;2023-04-25T11:03:46;99162.44;;;19.59;55.25
56270;BME280;42176;43.240;27.880;2023-04-25T11:06:44;99170.91;;;19.05;57.87
56270;BME280;42176;43.240;27.880;2023-04-25T11:09:12;99167.31;;;18.15;60.93
56270;BME280;42176;43.240;27.880;2023-04-25T11:11:38;99164.13;;;17.83;62.39
56270;BME280;42176;43.240;27.880;2023-04-25T11:14:04;99165.63;;;17.46;64.06
56270;BME280;42176;43.240;27.880;2023-04-25T11:16:30;99178.06;;;17.20;64.67
56270;BME280;42176;43.240;27.880;2023-04-25T11:18:57;99172.06;;;16.87;66.38
56270;BME280;42176;43.240;27.880;2023-04-25T11:21:23;99177.25;;;16.76;67.98
56270;BME280;42176;43.240;27.880;2023-04-25T11:23:51;99167.09;;;16.67;68.66
56270;BME280;42176;43.240;27.880;2023-04-25T11:26:19;99171.50;;;16.68;69.10
56270;BME280;42176;43.240;27.880;2023-04-25T11:28:45;99171.13;;;16.59;70.32
56270;BME280;42176;43.240;27.880;2023-04-25T11:31:10;99173.69;;;16.61;71.22
56270;BME280;42176;43.240;27.880;2023-04-25T11:33:36;99159.28;;;16.49;72.10
56270;BME280;42176;43.240;27.880;2023-04-25T11:36:01;99172.66;;;16.64;72.69
56270;BME280;42176;43.240;27.880;2023-04-25T11:38:27;99181.25;;;16.69;71.57
56270;BME280;42176;43.240;27.880;2023-04-25T11:40:53;99162.34;;;16.57;71.84
56270;BME280;42176;43.240;27.880;2023-04-25T11:43:22;99131.78;;;16.33;73.06
56270;BME280;42176;43.240;27.880;2023-04-25T11:45:49;99163.66;;;16.36;73.95
56270;BME280;42176;43.240;27.880;2023-04-25T11:48:15;99163.69;;;16.65;72.03
56270;BME280;42176;43.240;27.880;2023-04-25T11:50:41;99161.97;;;16.49;70.29
56270;BME280;42176;43.240;27.880;2023-04-25T11:53:06;99151.34;;;16.48;71.53
56270;BME280;42176;43.240;27.880;2023-04-25T11:55:33;99150.69;;;16.44;71.58
56270;BME280;42176;43.240;27.880;2023-04-25T11:58:00;99147.25;;;16.42;71.34
56270;BME280;42176;43.240;27.880;2023-04-25T12:00:26;99153.53;;;16.26;71.89
56270;BME280;42176;43.240;27.880;2023-04-25T12:02:54;99146.94;;;16.32;69.56
56270;BME280;42176;43.240;27.880;2023-04-25T12:05:24;99144.97;;;16.50;68.85
56270;BME280;42176;43.240;27.880;2023-04-25T12:07:50;99150.88;;;16.41;68.82
56270;BME280;42176;43.240;27.880;2023-04-25T12:10:17;99138.84;;;16.34;67.42
56270;BME280;42176;43.240;27.880;2023-04-25T12:12:44;99136.84;;;16.23;65.79
56270;BME280;42176;43.240;27.880;2023-04-25T12:15:26;99141.41;;;16.35;64.58
56270;BME280;42176;43.240;27.880;2023-04-25T12:17:53;99129.66;;;16.38;64.49
56270;BME280;42176;43.240;27.880;2023-04-25T12:20:23;99127.56;;;16.43;64.16
56270;BME280;42176;43.240;27.880;2023-04-25T12:22:49;99137.97;;;16.48;63.29
56270;BME280;42176;43.240;27.880;2023-04-25T12:25:35;99125.47;;;16.48;63.12
56270;BME280;42176;43.240;27.880;2023-04-25T12:31:11;99129.47;;;16.55;63.85
56270;BME280;42176;43.240;27.880;2023-04-25T12:33:39;99130.59;;;16.51;63.70
56270;BME280;42176;43.240;27.880;2023-04-25T12:36:06;99129.94;;;16.48;63.94
56270;BME280;42176;43.240;27.880;2023-04-25T12:38:39;99117.06;;;16.40;64.93
56270;BME280;42176;43.240;27.880;2023-04-25T12:41:06;99125.66;;;16.45;64.90
56270;BME280;42176;43.240;27.880;2023-04-25T12:43:32;99116.09;;;16.41;65.57
56270;BME280;42176;43.240;27.880;2023-04-25T12:45:58;99121.94;;;16.33;66.13
56270;BME280;42176;43.240;27.880;2023-04-25T12:48:23;99110.56;;;16.29;66.99
56270;BME280;42176;43.240;27.880;2023-04-25T12:50:50;99116.69;;;16.32;67.34